sensor_id;sensor_type;location;lat;lon;timestamp;P1;durP1;ratioP1;P2;durP2;ratioP2
10509;SDS011;5303;53.266;10.410;2022-08-19T00:01:31;14.87;;;9.67;;
10509;SDS011;5303;53.266;10.410;2022-08-19T00:03:59;12.17;;;9.20;;
10509;SDS011;5303;53.266;10.410;2022-08-19T00:06:26;13.27;;;10.47;;
10509;SDS011;5303;53.266;10.410;2022-08-19T00:08:52;16.03;;;9.80;;
10509;SDS011;5303;53.266;10.410;2022-08-19T00:11:17;12.53;;;9.27;;
10509;SDS011;5303;53.266;10.410;2022-08-19T00:13:43;12.30;;;9.30;;
10509;SDS011;5303;53.266;10.410;2022-08-19T00:16:10;11.27;;;9.70;;
10509;SDS011;5303;53.266;10.410;2022-08-19T00:18:36;13.97;;;9.93;;
10509;SDS011;5303;53.266;10.410;2022-08-19T00:21:01;12.67;;;9.90;;
10509;SDS011;5303;53.266;10.410;2022-08-19T00:23:27;13.10;;;9.63;;
10509;SDS011;5303;53.266;10.410;2022-08-19T00:25:52;11.50;;;9.10;;
10509;SDS011;5303;53.266;10.410;2022-08-19T00:28:18;11.60;;;9.07;;
10509;SDS011;5303;53.266;10.410;2022-08-19T00:30:43;11.87;;;8.87;;
10509;SDS011;5303;53.266;10.410;2022-08-19T00:33:09;13.03;;;9.10;;
10509;SDS011;5303;53.266;10.410;2022-08-19T00:35:35;10.60;;;8.37;;
10509;SDS011;5303;53.266;10.410;2022-08-19T00:38:00;13.23;;;8.83;;
10509;SDS011;5303;53.266;10.410;2022-08-19T00:40:25;13.07;;;9.10;;
10509;SDS011;5303;53.266;10.410;2022-08-19T00:42:51;12.53;;;8.57;;
10509;SDS011;5303;53.266;10.410;2022-08-19T00:45:19;8.70;;;7.80;;
10509;SDS011;5303;53.266;10.410;2022-08-19T00:47:45;10.07;;;8.30;;
10509;SDS011;5303;53.266;10.410;2022-08-19T00:50:12;11.70;;;8.70;;
10509;SDS011;5303;53.266;10.410;2022-08-19T00:52:43;12.67;;;8.63;;
10509;SDS011;5303;53.266;10.410;2022-08-19T00:55:21;13.70;;;8.97;;
10509;SDS011;5303;53.266;10.410;2022-08-19T00:57:51;13.00;;;9.50;;
10509;SDS011;5303;53.266;10.410;2022-08-19T01:00:21;11.07;;;9.00;;
10509;SDS011;5303;53.266;10.410;2022-08-19T01:02:49;10.33;;;8.30;;
10509;SDS011;5303;53.266;10.410;2022-08-19T01:05:15;10.80;;;8.70;;
10509;SDS011;5303;53.266;10.410;2022-08-19T01:07:46;10.70;;;8.53;;
10509;SDS011;5303;53.266;10.410;2022-08-19T01:10:16;17.50;;;9.67;;
10509;SDS011;5303;53.266;10.410;2022-08-19T01:12:45;11.57;;;8.57;;
10509;SDS011;5303;53.266;10.410;2022-08-19T01:15:11;10.33;;;8.73;;
10509;SDS011;5303;53.266;10.410;2022-08-19T01:17:40;12.20;;;9.13;;
10509;SDS011;5303;53.266;10.410;2022-08-19T01:20:09;13.13;;;8.93;;
10509;SDS011;5303;53.266;10.410;2022-08-19T01:22:39;10.63;;;8.53;;
10509;SDS011;5303;53.266;10.410;2022-08-19T01:25:09;12.33;;;9.33;;
10509;SDS011;5303;53.266;10.410;2022-08-19T01:27:42;9.60;;;8.60;;
10509;SDS011;5303;53.266;10.410;2022-08-19T01:30:12;9.40;;;8.40;;
10509;SDS011;5303;53.266;10.410;2022-08-19T01:32:39;15.30;;;9.30;;
10509;SDS011;5303;53.266;10.410;2022-08-19T01:35:05;9.67;;;8.73;;
10509;SDS011;5303;53.266;10.410;2022-08-19T01:37:40;14.50;;;9.87;;
10509;SDS011;5303;53.266;10.410;2022-08-19T01:43:28;12.77;;;9.03;;
10509;SDS011;5303;53.266;10.410;2022-08-19T01:45:54;14.73;;;9.50;;
10509;SDS011;5303;53.266;10.410;2022-08-19T01:48:19;14.63;;;9.87;;
10509;SDS011;5303;53.266;10.410;2022-08-19T01:50:44;14.90;;;11.00;;
10509;SDS011;5303;53.266;10.410;2022-08-19T01:53:10;12.53;;;8.80;;
10509;SDS011;5303;53.266;10.410;2022-08-19T01:55:37;11.77;;;9.03;;
10509;SDS011;5303;53.266;10.410;2022-08-19T01:58:04;13.80;;;9.47;;
10509;SDS011;5303;53.266;10.410;2022-08-19T02:00:31;11.97;;;9.37;;
10509;SDS011;5303;53.266;10.410;2022-08-19T02:02:57;11.27;;;8.57;;
10509;SDS011;5303;53.266;10.410;2022-08-19T02:05:23;13.07;;;9.33;;
10509;SDS011;5303;53.266;10.410;2022-08-19T02:07:48;12.03;;;9.63;;
10509;SDS011;5303;53.266;10.410;2022-08-19T02:10:16;11.53;;;9.93;;
10509;SDS011;5303;53.266;10.410;2022-08-19T02:12:44;10.03;;;9.03;;
10509;SDS011;5303;53.266;10.410;2022-08-19T02:15:10;14.00;;;9.83;;
10509;SDS011;5303;53.266;10.410;2022-08-19T02:17:36;12.93;;;9.83;;
10509;SDS011;5303;53.266;10.410;2022-08-19T02:20:02;14.23;;;9.57;;
10509;SDS011;5303;53.266;10.410;2022-08-19T02:22:28;12.47;;;9.17;;
10509;SDS011;5303;53.266;10.410;2022-08-19T02:24:54;11.03;;;9.23;;
10509;SDS011;5303;53.266;10.410;2022-08-19T02:27:20;10.23;;;9.23;;
10509;SDS011;5303;53.266;10.410;2022-08-19T02:29:47;12.43;;;10.00;;
10509;SDS011;5303;53.266;10.410;2022-08-19T02:32:14;9.47;;;8.47;;
10509;SDS011;5303;53.266;10.410;2022-08-19T02:34:40;11.43;;;8.47;;
10509;SDS011;5303;53.266;10.410;2022-08-19T02:37:05;9.97;;;8.10;;
10509;SDS011;5303;53.266;10.410;2022-08-19T02:39:51;11.63;;;8.80;;
10509;SDS011;5303;53.266;10.410;2022-08-19T02:42:16;11.73;;;8.90;;
10509;SDS011;5303;53.266;10.410;2022-08-19T02:44:42;10.03;;;8.63;;
10509;SDS011;5303;53.266;10.410;2022-08-19T02:47:07;13.87;;;8.97;;
10509;SDS011;5303;53.266;10.410;2022-08-19T02:49:32;10.47;;;9.37;;
10509;SDS011;5303;53.266;10.410;2022-08-19T02:51:58;13.27;;;9.77;;
10509;SDS011;5303;53.266;10.410;2022-08-19T02:54:23;12.83;;;9.13;;
10509;SDS011;5303;53.266;10.410;2022-08-19T02:56:48;10.13;;;8.27;;
10509;SDS011;5303;53.266;10.410;2022-08-19T02:59:13;10.07;;;8.50;;
10509;SDS011;5303;53.266;10.410;2022-08-19T03:01:39;10.13;;;8.47;;
10509;SDS011;5303;53.266;10.410;2022-08-19T03:04:08;11.27;;;8.83;;
10509;SDS011;5303;53.266;10.410;2022-08-19T03:06:36;12.77;;;9.27;;
10509;SDS011;5303;53.266;10.410;2022-08-19T03:09:03;11.23;;;9.00;;
10509;SDS011;5303;53.266;10.410;2022-08-19T03:11:29;13.00;;;10.00;;
10509;SDS011;5303;53.266;10.410;2022-08-19T03:13:57;13.93;;;11.30;;
10509;SDS011;5303;53.266;10.410;2022-08-19T03:16:24;16.37;;;12.27;;
10509;SDS011;5303;53.266;10.410;2022-08-19T03:18:52;18.17;;;12.17;;
10509;SDS011;5303;53.266;10.410;2022-08-19T03:21:20;19.13;;;13.00;;
10509;SDS011;5303;53.266;10.410;2022-08-19T03:23:47;17.73;;;12.70;;
10509;SDS011;5303;53.266;10.410;2022-08-19T03:26:12;17.90;;;13.00;;
10509;SDS011;5303;53.266;10.410;2022-08-19T03:28:39;17.40;;;12.97;;
10509;SDS011;5303;53.266;10.410;2022-08-19T03:31:07;16.07;;;11.67;;
10509;SDS011;5303;53.266;10.410;2022-08-19T03:33:35;21.97;;;13.73;;
10509;SDS011;5303;53.266;10.410;2022-08-19T03:36:09;21.57;;;14.67;;
10509;SDS011;5303;53.266;10.410;2022-08-19T03:38:38;20.13;;;13.23;;
10509;SDS011;5303;53.266;10.410;2022-08-19T03:41:07;19.83;;;14.40;;
10509;SDS011;5303;53.266;10.410;2022-08-19T03:43:35;17.57;;;14.03;;
10509;SDS011;5303;53.266;10.410;2022-08-19T03:46:06;21.87;;;13.70;;
10509;SDS011;5303;53.266;10.410;2022-08-19T03:48:34;20.60;;;13.90;;
10509;SDS011;5303;53.266;10.410;2022-08-19T03:51:01;19.50;;;12.43;;
10509;SDS011;5303;53.266;10.410;2022-08-19T03:53:27;18.87;;;13.53;;
10509;SDS011;5303;53.266;10.410;2022-08-19T03:55:53;20.57;;;12.90;;
10509;SDS011;5303;53.266;10.410;2022-08-19T03:58:20;18.03;;;12.03;;
10509;SDS011;5303;53.266;10.410;2022-08-19T04:00:45;21.60;;;13.03;;
10509;SDS011;5303;53.266;10.410;2022-08-19T04:03:10;17.10;;;12.30;;
10509;SDS011;5303;53.266;10.410;2022-08-19T04:05:36;16.30;;;11.67;;
10509;SDS011;5303;53.266;10.410;2022-08-19T04:08:03;17.90;;;12.07;;
10509;SDS011;5303;53.266;10.410;2022-08-19T04:10:30;15.53;;;10.90;;
10509;SDS011;5303;53.266;10.410;2022-08-19T04:12:56;17.03;;;11.43;;
10509;SDS011;5303;53.266;10.410;2022-08-19T04:15:21;15.53;;;10.63;;
10509;SDS011;5303;53.266;10.410;2022-08-19T04:17:46;17.40;;;11.43;;
10509;SDS011;5303;53.266;10.410;2022-08-19T04:20:12;16.40;;;11.23;;
10509;SDS011;5303;53.266;10.410;2022-08-19T04:22:37;14.90;;;10.40;;
10509;SDS011;5303;53.266;10.410;2022-08-19T04:25:02;15.63;;;11.50;;
10509;SDS011;5303;53.266;10.410;2022-08-19T04:27:28;14.40;;;10.90;;
10509;SDS011;5303;53.266;10.410;2022-08-19T04:29:54;14.23;;;9.80;;
10509;SDS011;5303;53.266;10.410;2022-08-19T04:32:20;14.17;;;9.97;;
10509;SDS011;5303;53.266;10.410;2022-08-19T04:34:45;16.07;;;10.73;;
10509;SDS011;5303;53.266;10.410;2022-08-19T04:37:11;16.50;;;10.33;;
10509;SDS011;5303;53.266;10.410;2022-08-19T04:39:37;16.80;;;10.80;;
10509;SDS011;5303;53.266;10.410;2022-08-19T04:42:22;13.23;;;10.37;;
10509;SDS011;5303;53.266;10.410;2022-08-19T04:45:13;16.73;;;10.77;;
10509;SDS011;5303;53.266;10.410;2022-08-19T04:47:39;18.13;;;11.30;;
10509;SDS011;5303;53.266;10.410;2022-08-19T04:50:07;15.70;;;10.07;;
10509;SDS011;5303;53.266;10.410;2022-08-19T04:52:36;18.17;;;11.50;;
10509;SDS011;5303;53.266;10.410;2022-08-19T04:55:02;20.50;;;12.50;;
10509;SDS011;5303;53.266;10.410;2022-08-19T04:57:30;18.10;;;11.50;;
10509;SDS011;5303;53.266;10.410;2022-08-19T04:59:56;16.50;;;11.63;;
10509;SDS011;5303;53.266;10.410;2022-08-19T05:02:22;19.47;;;12.00;;
10509;SDS011;5303;53.266;10.410;2022-08-19T05:04:51;20.00;;;11.63;;
10509;SDS011;5303;53.266;10.410;2022-08-19T05:07:21;20.17;;;11.00;;
10509;SDS011;5303;53.266;10.410;2022-08-19T05:09:46;14.23;;;10.87;;
10509;SDS011;5303;53.266;10.410;2022-08-19T05:12:12;19.87;;;12.83;;
10509;SDS011;5303;53.266;10.410;2022-08-19T05:14:37;17.53;;;11.03;;
10509;SDS011;5303;53.266;10.410;2022-08-19T05:17:03;19.53;;;12.27;;
10509;SDS011;5303;53.266;10.410;2022-08-19T05:19:28;20.03;;;12.83;;
10509;SDS011;5303;53.266;10.410;2022-08-19T05:22:12;19.07;;;11.10;;
10509;SDS011;5303;53.266;10.410;2022-08-19T05:24:56;16.97;;;11.83;;
10509;SDS011;5303;53.266;10.410;2022-08-19T05:27:21;18.83;;;11.57;;
10509;SDS011;5303;53.266;10.410;2022-08-19T05:29:46;16.23;;;11.83;;
10509;SDS011;5303;53.266;10.410;2022-08-19T05:32:11;18.10;;;11.83;;
10509;SDS011;5303;53.266;10.410;2022-08-19T05:34:37;21.17;;;13.23;;
10509;SDS011;5303;53.266;10.410;2022-08-19T05:37:03;21.83;;;12.83;;
10509;SDS011;5303;53.266;10.410;2022-08-19T05:39:31;19.43;;;11.97;;
10509;SDS011;5303;53.266;10.410;2022-08-19T05:41:59;17.80;;;13.07;;
10509;SDS011;5303;53.266;10.410;2022-08-19T05:44:28;21.37;;;13.30;;
10509;SDS011;5303;53.266;10.410;2022-08-19T05:46:58;23.07;;;14.47;;
10509;SDS011;5303;53.266;10.410;2022-08-19T05:49:25;22.43;;;13.90;;
10509;SDS011;5303;53.266;10.410;2022-08-19T05:51:52;25.90;;;16.23;;
10509;SDS011;5303;53.266;10.410;2022-08-19T05:54:18;21.47;;;14.70;;
10509;SDS011;5303;53.266;10.410;2022-08-19T05:56:44;19.87;;;13.10;;
10509;SDS011;5303;53.266;10.410;2022-08-19T05:59:13;21.30;;;13.93;;
10509;SDS011;5303;53.266;10.410;2022-08-19T06:01:41;23.03;;;15.30;;
10509;SDS011;5303;53.266;10.410;2022-08-19T06:04:11;25.13;;;15.70;;
10509;SDS011;5303;53.266;10.410;2022-08-19T06:06:38;22.87;;;14.60;;
10509;SDS011;5303;53.266;10.410;2022-08-19T06:09:04;21.10;;;13.77;;
10509;SDS011;5303;53.266;10.410;2022-08-19T06:11:33;24.17;;;17.17;;
10509;SDS011;5303;53.266;10.410;2022-08-19T06:14:02;22.43;;;16.07;;
10509;SDS011;5303;53.266;10.410;2022-08-19T06:16:29;26.10;;;17.47;;
10509;SDS011;5303;53.266;10.410;2022-08-19T06:18:56;31.43;;;19.70;;
10509;SDS011;5303;53.266;10.410;2022-08-19T06:21:25;28.33;;;18.60;;
10509;SDS011;5303;53.266;10.410;2022-08-19T06:23:52;29.07;;;19.90;;
10509;SDS011;5303;53.266;10.410;2022-08-19T06:26:20;36.23;;;20.70;;
10509;SDS011;5303;53.266;10.410;2022-08-19T06:28:46;35.20;;;21.97;;
10509;SDS011;5303;53.266;10.410;2022-08-19T06:31:13;38.60;;;22.70;;
10509;SDS011;5303;53.266;10.410;2022-08-19T06:33:41;42.07;;;27.33;;
10509;SDS011;5303;53.266;10.410;2022-08-19T06:36:15;43.30;;;27.10;;
10509;SDS011;5303;53.266;10.410;2022-08-19T06:38:51;46.33;;;29.03;;
10509;SDS011;5303;53.266;10.410;2022-08-19T06:41:17;49.00;;;29.63;;
10509;SDS011;5303;53.266;10.410;2022-08-19T06:43:42;50.70;;;31.17;;
10509;SDS011;5303;53.266;10.410;2022-08-19T06:49:30;46.90;;;30.00;;
10509;SDS011;5303;53.266;10.410;2022-08-19T06:51:56;51.40;;;30.50;;
10509;SDS011;5303;53.266;10.410;2022-08-19T06:54:22;46.87;;;29.20;;
10509;SDS011;5303;53.266;10.410;2022-08-19T06:56:48;46.97;;;30.07;;
10509;SDS011;5303;53.266;10.410;2022-08-19T06:59:15;41.90;;;26.67;;
10509;SDS011;5303;53.266;10.410;2022-08-19T07:01:46;40.90;;;26.33;;
10509;SDS011;5303;53.266;10.410;2022-08-19T07:04:17;43.27;;;27.43;;
10509;SDS011;5303;53.266;10.410;2022-08-19T07:06:44;43.27;;;27.53;;
10509;SDS011;5303;53.266;10.410;2022-08-19T07:09:14;42.90;;;26.83;;
10509;SDS011;5303;53.266;10.410;2022-08-19T07:11:46;46.17;;;28.77;;
10509;SDS011;5303;53.266;10.410;2022-08-19T07:14:16;42.77;;;26.43;;
10509;SDS011;5303;53.266;10.410;2022-08-19T07:16:44;43.90;;;28.00;;
10509;SDS011;5303;53.266;10.410;2022-08-19T07:19:10;46.67;;;28.57;;
10509;SDS011;5303;53.266;10.410;2022-08-19T07:21:37;44.47;;;29.43;;
10509;SDS011;5303;53.266;10.410;2022-08-19T07:24:03;43.23;;;28.37;;
10509;SDS011;5303;53.266;10.410;2022-08-19T07:26:30;46.50;;;30.70;;
10509;SDS011;5303;53.266;10.410;2022-08-19T07:28:58;50.73;;;29.97;;
10509;SDS011;5303;53.266;10.410;2022-08-19T07:31:25;50.93;;;30.97;;
10509;SDS011;5303;53.266;10.410;2022-08-19T07:33:52;52.13;;;32.47;;
10509;SDS011;5303;53.266;10.410;2022-08-19T07:36:21;52.43;;;31.63;;
10509;SDS011;5303;53.266;10.410;2022-08-19T07:38:50;52.10;;;30.93;;
10509;SDS011;5303;53.266;10.410;2022-08-19T07:41:21;48.57;;;31.20;;
10509;SDS011;5303;53.266;10.410;2022-08-19T07:43:48;51.77;;;30.80;;
10509;SDS011;5303;53.266;10.410;2022-08-19T07:46:14;59.77;;;33.03;;
10509;SDS011;5303;53.266;10.410;2022-08-19T07:48:41;49.60;;;31.73;;
10509;SDS011;5303;53.266;10.410;2022-08-19T07:51:09;57.53;;;31.43;;
10509;SDS011;5303;53.266;10.410;2022-08-19T07:53:36;47.10;;;30.33;;
10509;SDS011;5303;53.266;10.410;2022-08-19T07:56:03;52.13;;;31.93;;
10509;SDS011;5303;53.266;10.410;2022-08-19T07:58:34;54.13;;;33.00;;
10509;SDS011;5303;53.266;10.410;2022-08-19T08:01:02;54.33;;;32.57;;
10509;SDS011;5303;53.266;10.410;2022-08-19T08:03:29;51.33;;;31.30;;
10509;SDS011;5303;53.266;10.410;2022-08-19T08:06:14;54.97;;;34.17;;
10509;SDS011;5303;53.266;10.410;2022-08-19T08:09:00;60.30;;;33.30;;
10509;SDS011;5303;53.266;10.410;2022-08-19T08:11:38;63.47;;;34.17;;
10509;SDS011;5303;53.266;10.410;2022-08-19T08:14:04;64.53;;;36.20;;
10509;SDS011;5303;53.266;10.410;2022-08-19T08:16:30;58.77;;;35.27;;
10509;SDS011;5303;53.266;10.410;2022-08-19T08:18:58;60.43;;;34.57;;
10509;SDS011;5303;53.266;10.410;2022-08-19T08:21:25;69.37;;;36.37;;
10509;SDS011;5303;53.266;10.410;2022-08-19T08:23:50;69.20;;;35.10;;
10509;SDS011;5303;53.266;10.410;2022-08-19T08:26:20;61.63;;;33.87;;
10509;SDS011;5303;53.266;10.410;2022-08-19T08:28:45;67.60;;;36.73;;
10509;SDS011;5303;53.266;10.410;2022-08-19T08:31:13;57.97;;;34.73;;
10509;SDS011;5303;53.266;10.410;2022-08-19T08:33:38;64.87;;;36.20;;
10509;SDS011;5303;53.266;10.410;2022-08-19T08:36:06;61.47;;;34.63;;
10509;SDS011;5303;53.266;10.410;2022-08-19T08:38:33;59.60;;;32.03;;
10509;SDS011;5303;53.266;10.410;2022-08-19T08:41:05;58.00;;;34.07;;
10509;SDS011;5303;53.266;10.410;2022-08-19T08:43:48;56.43;;;32.17;;
10509;SDS011;5303;53.266;10.410;2022-08-19T08:51:59;54.57;;;32.17;;
10509;SDS011;5303;53.266;10.410;2022-08-19T08:54:30;47.60;;;30.13;;
10509;SDS011;5303;53.266;10.410;2022-08-19T08:56:58;51.70;;;31.93;;
10509;SDS011;5303;53.266;10.410;2022-08-19T08:59:26;61.53;;;33.93;;
10509;SDS011;5303;53.266;10.410;2022-08-19T09:01:58;53.30;;;30.57;;
10509;SDS011;5303;53.266;10.410;2022-08-19T09:04:24;57.57;;;31.57;;
10509;SDS011;5303;53.266;10.410;2022-08-19T09:06:51;47.73;;;31.27;;
10509;SDS011;5303;53.266;10.410;2022-08-19T09:09:35;50.27;;;30.43;;
10509;SDS011;5303;53.266;10.410;2022-08-19T09:17:24;49.87;;;28.50;;
10509;SDS011;5303;53.266;10.410;2022-08-19T09:22:33;49.60;;;28.10;;
10509;SDS011;5303;53.266;10.410;2022-08-19T09:25:00;45.70;;;26.77;;
10509;SDS011;5303;53.266;10.410;2022-08-19T09:27:27;44.03;;;26.17;;
10509;SDS011;5303;53.266;10.410;2022-08-19T09:29:53;42.03;;;27.23;;
10509;SDS011;5303;53.266;10.410;2022-08-19T09:32:20;45.70;;;28.23;;
10509;SDS011;5303;53.266;10.410;2022-08-19T09:34:47;45.00;;;25.63;;
10509;SDS011;5303;53.266;10.410;2022-08-19T09:37:13;44.87;;;26.93;;
10509;SDS011;5303;53.266;10.410;2022-08-19T09:39:39;43.57;;;26.83;;
10509;SDS011;5303;53.266;10.410;2022-08-19T09:42:06;42.63;;;25.67;;
10509;SDS011;5303;53.266;10.410;2022-08-19T09:44:36;43.57;;;25.77;;
10509;SDS011;5303;53.266;10.410;2022-08-19T09:47:02;41.37;;;24.57;;
10509;SDS011;5303;53.266;10.410;2022-08-19T09:49:28;42.33;;;24.90;;
10509;SDS011;5303;53.266;10.410;2022-08-19T09:51:53;38.37;;;23.00;;
10509;SDS011;5303;53.266;10.410;2022-08-19T09:54:20;36.53;;;22.23;;
10509;SDS011;5303;53.266;10.410;2022-08-19T09:56:46;44.77;;;24.23;;
10509;SDS011;5303;53.266;10.410;2022-08-19T09:59:11;42.57;;;24.07;;
10509;SDS011;5303;53.266;10.410;2022-08-19T10:01:37;43.60;;;26.33;;
10509;SDS011;5303;53.266;10.410;2022-08-19T10:04:02;46.50;;;25.03;;
10509;SDS011;5303;53.266;10.410;2022-08-19T10:06:33;45.77;;;26.60;;
10509;SDS011;5303;53.266;10.410;2022-08-19T10:08:59;39.93;;;24.47;;
10509;SDS011;5303;53.266;10.410;2022-08-19T10:11:25;49.27;;;27.17;;
10509;SDS011;5303;53.266;10.410;2022-08-19T10:13:51;42.77;;;25.60;;
10509;SDS011;5303;53.266;10.410;2022-08-19T10:16:18;39.50;;;24.03;;
10509;SDS011;5303;53.266;10.410;2022-08-19T10:18:46;43.27;;;26.67;;
10509;SDS011;5303;53.266;10.410;2022-08-19T10:23:45;46.67;;;26.73;;
10509;SDS011;5303;53.266;10.410;2022-08-19T10:26:15;45.87;;;27.50;;
10509;SDS011;5303;53.266;10.410;2022-08-19T10:28:45;43.60;;;26.43;;
10509;SDS011;5303;53.266;10.410;2022-08-19T10:31:13;46.27;;;26.40;;
10509;SDS011;5303;53.266;10.410;2022-08-19T10:33:42;41.87;;;25.10;;
10509;SDS011;5303;53.266;10.410;2022-08-19T10:39:30;46.67;;;29.83;;
10509;SDS011;5303;53.266;10.410;2022-08-19T10:41:56;51.60;;;29.40;;
10509;SDS011;5303;53.266;10.410;2022-08-19T10:44:22;50.07;;;30.40;;
10509;SDS011;5303;53.266;10.410;2022-08-19T10:46:48;46.53;;;29.20;;
10509;SDS011;5303;53.266;10.410;2022-08-19T10:49:14;49.67;;;30.40;;
10509;SDS011;5303;53.266;10.410;2022-08-19T10:51:39;51.23;;;31.40;;
10509;SDS011;5303;53.266;10.410;2022-08-19T10:54:24;47.77;;;30.20;;
10509;SDS011;5303;53.266;10.410;2022-08-19T10:57:09;50.17;;;30.07;;
10509;SDS011;5303;53.266;10.410;2022-08-19T10:59:35;52.87;;;30.90;;
10509;SDS011;5303;53.266;10.410;2022-08-19T11:02:01;59.33;;;31.90;;
10509;SDS011;5303;53.266;10.410;2022-08-19T11:04:28;50.33;;;31.03;;
10509;SDS011;5303;53.266;10.410;2022-08-19T11:06:53;50.63;;;31.67;;
10509;SDS011;5303;53.266;10.410;2022-08-19T11:09:20;51.13;;;32.67;;
10509;SDS011;5303;53.266;10.410;2022-08-19T11:11:49;48.47;;;30.73;;
10509;SDS011;5303;53.266;10.410;2022-08-19T11:14:16;52.20;;;33.63;;
10509;SDS011;5303;53.266;10.410;2022-08-19T11:16:45;63.23;;;36.87;;
10509;SDS011;5303;53.266;10.410;2022-08-19T11:19:11;53.50;;;32.93;;
10509;SDS011;5303;53.266;10.410;2022-08-19T11:21:42;55.93;;;34.57;;
10509;SDS011;5303;53.266;10.410;2022-08-19T11:24:10;55.33;;;35.67;;
10509;SDS011;5303;53.266;10.410;2022-08-19T11:26:38;58.67;;;33.53;;
10509;SDS011;5303;53.266;10.410;2022-08-19T11:29:06;52.73;;;33.60;;
10509;SDS011;5303;53.266;10.410;2022-08-19T11:31:36;54.57;;;32.53;;
10509;SDS011;5303;53.266;10.410;2022-08-19T11:34:05;50.63;;;33.63;;
10509;SDS011;5303;53.266;10.410;2022-08-19T11:36:32;57.63;;;35.20;;
10509;SDS011;5303;53.266;10.410;2022-08-19T11:38:59;52.87;;;34.87;;
10509;SDS011;5303;53.266;10.410;2022-08-19T11:41:26;54.57;;;36.13;;
10509;SDS011;5303;53.266;10.410;2022-08-19T11:43:52;58.13;;;37.03;;
10509;SDS011;5303;53.266;10.410;2022-08-19T11:46:20;50.63;;;33.90;;
10509;SDS011;5303;53.266;10.410;2022-08-19T11:48:47;53.47;;;34.63;;
10509;SDS011;5303;53.266;10.410;2022-08-19T11:51:16;62.90;;;37.70;;
10509;SDS011;5303;53.266;10.410;2022-08-19T11:53:44;53.73;;;35.70;;
10509;SDS011;5303;53.266;10.410;2022-08-19T11:56:10;54.37;;;35.40;;
10509;SDS011;5303;53.266;10.410;2022-08-19T11:58:37;49.87;;;33.73;;
10509;SDS011;5303;53.266;10.410;2022-08-19T12:01:07;52.20;;;35.13;;
10509;SDS011;5303;53.266;10.410;2022-08-19T12:03:34;48.03;;;32.40;;
10509;SDS011;5303;53.266;10.410;2022-08-19T12:06:03;47.40;;;32.53;;
10509;SDS011;5303;53.266;10.410;2022-08-19T12:08:29;50.10;;;31.73;;
10509;SDS011;5303;53.266;10.410;2022-08-19T12:10:55;49.43;;;32.40;;
10509;SDS011;5303;53.266;10.410;2022-08-19T12:13:21;68.33;;;36.67;;
10509;SDS011;5303;53.266;10.410;2022-08-19T12:15:47;56.43;;;34.17;;
10509;SDS011;5303;53.266;10.410;2022-08-19T12:18:12;47.30;;;33.53;;
10509;SDS011;5303;53.266;10.410;2022-08-19T12:20:39;52.13;;;34.60;;
10509;SDS011;5303;53.266;10.410;2022-08-19T12:23:06;77.13;;;36.43;;
10509;SDS011;5303;53.266;10.410;2022-08-19T12:25:34;50.57;;;33.73;;
10509;SDS011;5303;53.266;10.410;2022-08-19T12:28:00;90.53;;;37.73;;
10509;SDS011;5303;53.266;10.410;2022-08-19T12:30:25;58.03;;;36.53;;
10509;SDS011;5303;53.266;10.410;2022-08-19T12:32:51;51.20;;;33.23;;
10509;SDS011;5303;53.266;10.410;2022-08-19T12:35:17;46.23;;;35.00;;
10509;SDS011;5303;53.266;10.410;2022-08-19T12:37:45;46.77;;;33.77;;
10509;SDS011;5303;53.266;10.410;2022-08-19T12:40:11;40.83;;;30.57;;
10509;SDS011;5303;53.266;10.410;2022-08-19T12:42:37;43.00;;;34.23;;
10509;SDS011;5303;53.266;10.410;2022-08-19T12:45:06;42.13;;;34.00;;
10509;SDS011;5303;53.266;10.410;2022-08-19T12:47:32;43.37;;;33.43;;
10509;SDS011;5303;53.266;10.410;2022-08-19T12:49:57;49.10;;;34.83;;
10509;SDS011;5303;53.266;10.410;2022-08-19T12:52:23;52.10;;;34.87;;
10509;SDS011;5303;53.266;10.410;2022-08-19T12:54:50;46.00;;;31.77;;
10509;SDS011;5303;53.266;10.410;2022-08-19T12:57:18;46.40;;;32.53;;
10509;SDS011;5303;53.266;10.410;2022-08-19T12:59:43;43.17;;;30.97;;
10509;SDS011;5303;53.266;10.410;2022-08-19T13:02:09;40.63;;;32.03;;
10509;SDS011;5303;53.266;10.410;2022-08-19T13:04:36;42.63;;;31.60;;
10509;SDS011;5303;53.266;10.410;2022-08-19T13:07:05;43.75;;;32.00;;
10509;SDS011;5303;53.266;10.410;2022-08-19T13:09:32;42.30;;;31.97;;
10509;SDS011;5303;53.266;10.410;2022-08-19T13:11:57;42.87;;;30.07;;
10509;SDS011;5303;53.266;10.410;2022-08-19T13:14:22;35.72;;;27.98;;
10509;SDS011;5303;53.266;10.410;2022-08-19T13:16:48;44.60;;;30.48;;
10509;SDS011;5303;53.266;10.410;2022-08-19T13:19:13;37.70;;;28.17;;
10509;SDS011;5303;53.266;10.410;2022-08-19T13:21:38;36.20;;;28.48;;
10509;SDS011;5303;53.266;10.410;2022-08-19T13:24:04;38.83;;;30.20;;
10509;SDS011;5303;53.266;10.410;2022-08-19T13:26:29;35.57;;;29.67;;
10509;SDS011;5303;53.266;10.410;2022-08-19T13:28:55;37.83;;;28.38;;
10509;SDS011;5303;53.266;10.410;2022-08-19T13:31:39;40.75;;;29.08;;
10509;SDS011;5303;53.266;10.410;2022-08-19T13:34:29;37.35;;;27.88;;
10509;SDS011;5303;53.266;10.410;2022-08-19T13:36:57;39.22;;;30.30;;
10509;SDS011;5303;53.266;10.410;2022-08-19T13:39:23;37.50;;;30.92;;
10509;SDS011;5303;53.266;10.410;2022-08-19T13:41:48;38.63;;;28.80;;
10509;SDS011;5303;53.266;10.410;2022-08-19T13:44:18;34.40;;;26.83;;
10509;SDS011;5303;53.266;10.410;2022-08-19T13:46:44;31.65;;;25.95;;
10509;SDS011;5303;53.266;10.410;2022-08-19T13:49:11;32.72;;;26.45;;
10509;SDS011;5303;53.266;10.410;2022-08-19T13:51:40;36.45;;;27.20;;
10509;SDS011;5303;53.266;10.410;2022-08-19T13:54:07;33.70;;;26.73;;
10509;SDS011;5303;53.266;10.410;2022-08-19T13:56:33;30.00;;;23.40;;
10509;SDS011;5303;53.266;10.410;2022-08-19T13:58:59;27.17;;;22.60;;
10509;SDS011;5303;53.266;10.410;2022-08-19T14:01:24;26.80;;;23.95;;
10509;SDS011;5303;53.266;10.410;2022-08-19T14:03:51;30.58;;;23.25;;
10509;SDS011;5303;53.266;10.410;2022-08-19T14:06:17;28.75;;;24.33;;
10509;SDS011;5303;53.266;10.410;2022-08-19T14:08:43;30.52;;;24.70;;
10509;SDS011;5303;53.266;10.410;2022-08-19T14:11:08;28.52;;;21.65;;
10509;SDS011;5303;53.266;10.410;2022-08-19T14:13:34;28.55;;;22.98;;
10509;SDS011;5303;53.266;10.410;2022-08-19T14:15:59;29.67;;;24.58;;
10509;SDS011;5303;53.266;10.410;2022-08-19T14:18:25;29.02;;;22.65;;
10509;SDS011;5303;53.266;10.410;2022-08-19T14:20:51;26.13;;;20.42;;
10509;SDS011;5303;53.266;10.410;2022-08-19T14:23:16;24.27;;;20.20;;
10509;SDS011;5303;53.266;10.410;2022-08-19T14:25:43;25.83;;;20.60;;
10509;SDS011;5303;53.266;10.410;2022-08-19T14:28:09;24.50;;;20.30;;
10509;SDS011;5303;53.266;10.410;2022-08-19T14:30:35;26.42;;;21.15;;
10509;SDS011;5303;53.266;10.410;2022-08-19T14:33:03;33.97;;;23.25;;
10509;SDS011;5303;53.266;10.410;2022-08-19T14:35:30;27.02;;;21.58;;
10509;SDS011;5303;53.266;10.410;2022-08-19T14:37:59;28.85;;;24.30;;
10509;SDS011;5303;53.266;10.410;2022-08-19T14:40:26;31.88;;;23.20;;
10509;SDS011;5303;53.266;10.410;2022-08-19T14:42:54;27.40;;;22.10;;
10509;SDS011;5303;53.266;10.410;2022-08-19T14:45:24;28.27;;;23.48;;
10509;SDS011;5303;53.266;10.410;2022-08-19T14:47:51;28.05;;;21.63;;
10509;SDS011;5303;53.266;10.410;2022-08-19T14:50:17;29.35;;;23.48;;
10509;SDS011;5303;53.266;10.410;2022-08-19T14:52:42;24.60;;;21.55;;